sensor_id;sensor_type;location;lat;lon;timestamp;pressure;altitude;pressure_sealevel;temperature
54306;BMP280;50434;45.188;5.712;2022-08-01T00:00:33;99406.88;;;27.89
54306;BMP280;50434;45.188;5.712;2022-08-01T00:02:59;99402.38;;;27.82
54306;BMP280;50434;45.188;5.712;2022-08-01T00:05:24;99398.06;;;27.79
54306;BMP280;50434;45.188;5.712;2022-08-01T00:07:50;99406.31;;;27.75
54306;BMP280;50434;45.188;5.712;2022-08-01T00:10:16;99411.03;;;27.70
54306;BMP280;50434;45.188;5.712;2022-08-01T00:12:43;99407.28;;;27.63
54306;BMP280;50434;45.188;5.712;2022-08-01T00:15:11;99395.91;;;27.59
54306;BMP280;50434;45.188;5.712;2022-08-01T00:17:37;99407.03;;;27.57
54306;BMP280;50434;45.188;5.712;2022-08-01T00:20:05;99403.34;;;27.53
54306;BMP280;50434;45.188;5.712;2022-08-01T00:22:33;99401.84;;;27.50
54306;BMP280;50434;45.188;5.712;2022-08-01T00:24:58;99402.28;;;27.44
54306;BMP280;50434;45.188;5.712;2022-08-01T00:27:24;99399.91;;;27.37
54306;BMP280;50434;45.188;5.712;2022-08-01T00:29:49;99403.31;;;27.35
54306;BMP280;50434;45.188;5.712;2022-08-01T00:32:15;99405.88;;;27.29
54306;BMP280;50434;45.188;5.712;2022-08-01T00:34:40;99411.41;;;27.27
54306;BMP280;50434;45.188;5.712;2022-08-01T00:37:06;99408.19;;;27.17
54306;BMP280;50434;45.188;5.712;2022-08-01T00:39:31;99399.69;;;27.15
54306;BMP280;50434;45.188;5.712;2022-08-01T00:41:59;99404.66;;;27.17
54306;BMP280;50434;45.188;5.712;2022-08-01T00:44:24;99406.72;;;27.16
54306;BMP280;50434;45.188;5.712;2022-08-01T00:46:49;99408.81;;;27.16
54306;BMP280;50434;45.188;5.712;2022-08-01T00:49:15;99407.19;;;27.11
54306;BMP280;50434;45.188;5.712;2022-08-01T00:51:40;99414.06;;;27.08
54306;BMP280;50434;45.188;5.712;2022-08-01T00:54:06;99406.19;;;27.04
54306;BMP280;50434;45.188;5.712;2022-08-01T00:56:31;99412.38;;;27.01
54306;BMP280;50434;45.188;5.712;2022-08-01T00:58:57;99412.38;;;27.01
54306;BMP280;50434;45.188;5.712;2022-08-01T01:01:23;99412.28;;;26.99
54306;BMP280;50434;45.188;5.712;2022-08-01T01:03:49;99415.06;;;26.99
54306;BMP280;50434;45.188;5.712;2022-08-01T01:06:35;99411.53;;;26.98
54306;BMP280;50434;45.188;5.712;2022-08-01T01:09:28;99418.53;;;26.97
54306;BMP280;50434;45.188;5.712;2022-08-01T01:12:25;99420.59;;;26.97
54306;BMP280;50434;45.188;5.712;2022-08-01T01:15:35;99419.63;;;26.90
54306;BMP280;50434;45.188;5.712;2022-08-01T01:18:14;99413.91;;;26.88
54306;BMP280;50434;45.188;5.712;2022-08-01T01:21:35;99422.13;;;26.84
54306;BMP280;50434;45.188;5.712;2022-08-01T01:23:46;99416.91;;;26.77
54306;BMP280;50434;45.188;5.712;2022-08-01T01:31:47;99414.84;;;26.77
54306;BMP280;50434;45.188;5.712;2022-08-01T01:34:15;99423.41;;;26.81
54306;BMP280;50434;45.188;5.712;2022-08-01T01:36:43;99416.38;;;26.80
54306;BMP280;50434;45.188;5.712;2022-08-01T01:39:11;99419.81;;;26.79
54306;BMP280;50434;45.188;5.712;2022-08-01T01:41:37;99425.22;;;26.75
54306;BMP280;50434;45.188;5.712;2022-08-01T01:44:05;99425.84;;;26.73
54306;BMP280;50434;45.188;5.712;2022-08-01T01:46:31;99422.31;;;26.73
54306;BMP280;50434;45.188;5.712;2022-08-01T01:48:58;99420.97;;;26.74
54306;BMP280;50434;45.188;5.712;2022-08-01T01:51:25;99435.69;;;26.74
54306;BMP280;50434;45.188;5.712;2022-08-01T01:53:53;99420.16;;;26.71
54306;BMP280;50434;45.188;5.712;2022-08-01T01:56:21;99428.47;;;26.69
54306;BMP280;50434;45.188;5.712;2022-08-01T01:58:51;99428.28;;;26.65
54306;BMP280;50434;45.188;5.712;2022-08-01T02:01:18;99431.00;;;26.63
54306;BMP280;50434;45.188;5.712;2022-08-01T02:03:44;99432.25;;;26.60
54306;BMP280;50434;45.188;5.712;2022-08-01T02:06:13;99432.69;;;26.55
54306;BMP280;50434;45.188;5.712;2022-08-01T02:08:42;99424.69;;;26.47
54306;BMP280;50434;45.188;5.712;2022-08-01T02:11:07;99432.22;;;26.45
54306;BMP280;50434;45.188;5.712;2022-08-01T02:13:59;99428.09;;;26.46
54306;BMP280;50434;45.188;5.712;2022-08-01T02:16:28;99433.69;;;26.46
54306;BMP280;50434;45.188;5.712;2022-08-01T02:18:54;99428.00;;;26.44
54306;BMP280;50434;45.188;5.712;2022-08-01T02:21:28;99439.09;;;26.42
54306;BMP280;50434;45.188;5.712;2022-08-01T02:23:59;99438.91;;;26.38
54306;BMP280;50434;45.188;5.712;2022-08-01T02:26:27;99438.03;;;26.33
54306;BMP280;50434;45.188;5.712;2022-08-01T02:28:56;99441.94;;;26.28
54306;BMP280;50434;45.188;5.712;2022-08-01T02:31:22;99440.25;;;26.21
54306;BMP280;50434;45.188;5.712;2022-08-01T02:34:04;99443.41;;;26.13
54306;BMP280;50434;45.188;5.712;2022-08-01T02:36:33;99443.09;;;26.07
54306;BMP280;50434;45.188;5.712;2022-08-01T02:39:03;99445.72;;;26.03
54306;BMP280;50434;45.188;5.712;2022-08-01T02:41:30;99443.44;;;26.00
54306;BMP280;50434;45.188;5.712;2022-08-01T02:43:59;99438.28;;;25.94
54306;BMP280;50434;45.188;5.712;2022-08-01T02:46:31;99440.78;;;25.88
54306;BMP280;50434;45.188;5.712;2022-08-01T02:49:00;99443.91;;;25.81
54306;BMP280;50434;45.188;5.712;2022-08-01T02:51:30;99442.69;;;25.84
54306;BMP280;50434;45.188;5.712;2022-08-01T02:53:57;99433.03;;;25.87
54306;BMP280;50434;45.188;5.712;2022-08-01T02:56:25;99448.63;;;25.92
54306;BMP280;50434;45.188;5.712;2022-08-01T02:59:02;99440.06;;;25.88
54306;BMP280;50434;45.188;5.712;2022-08-01T03:01:29;99447.81;;;25.89
54306;BMP280;50434;45.188;5.712;2022-08-01T03:03:55;99441.41;;;25.87
54306;BMP280;50434;45.188;5.712;2022-08-01T03:06:21;99444.00;;;25.83
54306;BMP280;50434;45.188;5.712;2022-08-01T03:08:47;99444.00;;;25.83
54306;BMP280;50434;45.188;5.712;2022-08-01T03:11:15;99450.63;;;25.76
54306;BMP280;50434;45.188;5.712;2022-08-01T03:13:41;99444.47;;;25.64
54306;BMP280;50434;45.188;5.712;2022-08-01T03:16:09;99440.13;;;25.61
54306;BMP280;50434;45.188;5.712;2022-08-01T03:21:03;99446.34;;;25.59
54306;BMP280;50434;45.188;5.712;2022-08-01T03:23:29;99432.19;;;25.55
54306;BMP280;50434;45.188;5.712;2022-08-01T03:25:57;99438.28;;;25.52
54306;BMP280;50434;45.188;5.712;2022-08-01T03:28:24;99441.91;;;25.54
54306;BMP280;50434;45.188;5.712;2022-08-01T03:30:51;99443.34;;;25.55
54306;BMP280;50434;45.188;5.712;2022-08-01T03:33:16;99440.97;;;25.50
54306;BMP280;50434;45.188;5.712;2022-08-01T03:35:49;99429.41;;;25.42
54306;BMP280;50434;45.188;5.712;2022-08-01T03:38:23;99440.56;;;25.42
54306;BMP280;50434;45.188;5.712;2022-08-01T03:40:56;99438.94;;;25.37
54306;BMP280;50434;45.188;5.712;2022-08-01T03:43:37;99445.66;;;25.32
54306;BMP280;50434;45.188;5.712;2022-08-01T03:46:11;99446.78;;;25.27
54306;BMP280;50434;45.188;5.712;2022-08-01T03:48:39;99441.72;;;25.23
54306;BMP280;50434;45.188;5.712;2022-08-01T03:51:07;99452.25;;;25.25
54306;BMP280;50434;45.188;5.712;2022-08-01T03:53:34;99450.00;;;25.21
54306;BMP280;50434;45.188;5.712;2022-08-01T03:56:02;99448.44;;;25.18
54306;BMP280;50434;45.188;5.712;2022-08-01T03:58:30;99459.00;;;25.20
54306;BMP280;50434;45.188;5.712;2022-08-01T04:00:57;99453.19;;;25.16
54306;BMP280;50434;45.188;5.712;2022-08-01T04:03:24;99461.47;;;25.14
54306;BMP280;50434;45.188;5.712;2022-08-01T04:05:50;99449.59;;;25.13
54306;BMP280;50434;45.188;5.712;2022-08-01T04:08:15;99457.03;;;25.09
54306;BMP280;50434;45.188;5.712;2022-08-01T04:10:41;99461.34;;;24.98
54306;BMP280;50434;45.188;5.712;2022-08-01T04:13:06;99454.41;;;24.99
54306;BMP280;50434;45.188;5.712;2022-08-01T04:15:32;99457.84;;;24.98
54306;BMP280;50434;45.188;5.712;2022-08-01T04:17:57;99464.53;;;24.92
54306;BMP280;50434;45.188;5.712;2022-08-01T04:20:23;99470.03;;;24.90
54306;BMP280;50434;45.188;5.712;2022-08-01T04:22:48;99467.53;;;24.83
54306;BMP280;50434;45.188;5.712;2022-08-01T04:27:48;99469.28;;;24.76
54306;BMP280;50434;45.188;5.712;2022-08-01T04:30:16;99475.25;;;24.71
54306;BMP280;50434;45.188;5.712;2022-08-01T04:32:44;99468.44;;;24.74
54306;BMP280;50434;45.188;5.712;2022-08-01T04:35:12;99475.38;;;24.73
54306;BMP280;50434;45.188;5.712;2022-08-01T04:37:42;99482.91;;;24.70
54306;BMP280;50434;45.188;5.712;2022-08-01T04:40:10;99473.66;;;24.68
54306;BMP280;50434;45.188;5.712;2022-08-01T04:42:36;99473.91;;;24.72
54306;BMP280;50434;45.188;5.712;2022-08-01T04:45:03;99480.81;;;24.71
54306;BMP280;50434;45.188;5.712;2022-08-01T04:47:30;99481.31;;;24.67
54306;BMP280;50434;45.188;5.712;2022-08-01T04:49:56;99485.47;;;24.66
54306;BMP280;50434;45.188;5.712;2022-08-01T04:52:22;99485.56;;;24.68
54306;BMP280;50434;45.188;5.712;2022-08-01T04:54:47;99491.78;;;24.67
54306;BMP280;50434;45.188;5.712;2022-08-01T04:57:13;99491.03;;;24.66
54306;BMP280;50434;45.188;5.712;2022-08-01T04:59:42;99488.03;;;24.62
54306;BMP280;50434;45.188;5.712;2022-08-01T05:02:16;99496.81;;;24.57
54306;BMP280;50434;45.188;5.712;2022-08-01T05:04:42;99494.72;;;24.57
54306;BMP280;50434;45.188;5.712;2022-08-01T05:07:09;99491.09;;;24.55
54306;BMP280;50434;45.188;5.712;2022-08-01T05:09:34;99480.34;;;24.49
54306;BMP280;50434;45.188;5.712;2022-08-01T05:12:02;99488.94;;;24.53
54306;BMP280;50434;45.188;5.712;2022-08-01T05:14:29;99486.88;;;24.54
54306;BMP280;50434;45.188;5.712;2022-08-01T05:16:58;99487.25;;;24.48
54306;BMP280;50434;45.188;5.712;2022-08-01T05:19:24;99489.81;;;24.44
54306;BMP280;50434;45.188;5.712;2022-08-01T05:21:49;99485.47;;;24.41
54306;BMP280;50434;45.188;5.712;2022-08-01T05:24:15;99492.03;;;24.34
54306;BMP280;50434;45.188;5.712;2022-08-01T05:26:40;99486.38;;;24.32
54306;BMP280;50434;45.188;5.712;2022-08-01T05:29:05;99482.97;;;24.34
54306;BMP280;50434;45.188;5.712;2022-08-01T05:31:31;99487.19;;;24.35
54306;BMP280;50434;45.188;5.712;2022-08-01T05:34:02;99494.47;;;24.40
54306;BMP280;50434;45.188;5.712;2022-08-01T05:36:28;99486.69;;;24.38
54306;BMP280;50434;45.188;5.712;2022-08-01T05:38:53;99489.81;;;24.44
54306;BMP280;50434;45.188;5.712;2022-08-01T05:41:18;99492.97;;;24.50
54306;BMP280;50434;45.188;5.712;2022-08-01T05:43:44;99494.69;;;24.44
54306;BMP280;50434;45.188;5.712;2022-08-01T05:46:09;99492.19;;;24.36
54306;BMP280;50434;45.188;5.712;2022-08-01T05:48:34;99491.69;;;24.40
54306;BMP280;50434;45.188;5.712;2022-08-01T05:51:00;99485.38;;;24.39
54306;BMP280;50434;45.188;5.712;2022-08-01T05:53:26;99491.19;;;24.43
54306;BMP280;50434;45.188;5.712;2022-08-01T05:55:51;99495.53;;;24.46
54306;BMP280;50434;45.188;5.712;2022-08-01T05:58:17;99491.34;;;24.47
54306;BMP280;50434;45.188;5.712;2022-08-01T06:00:42;99483.66;;;24.46
54306;BMP280;50434;45.188;5.712;2022-08-01T06:03:07;99501.19;;;24.48
54306;BMP280;50434;45.188;5.712;2022-08-01T06:05:33;99499.03;;;24.47
54306;BMP280;50434;45.188;5.712;2022-08-01T06:07:58;99496.13;;;24.45
54306;BMP280;50434;45.188;5.712;2022-08-01T06:10:24;99495.75;;;24.50
54306;BMP280;50434;45.188;5.712;2022-08-01T06:12:49;99499.44;;;24.55
54306;BMP280;50434;45.188;5.712;2022-08-01T06:15:14;99498.88;;;24.56
54306;BMP280;50434;45.188;5.712;2022-08-01T06:17:40;99493.38;;;24.58
54306;BMP280;50434;45.188;5.712;2022-08-01T06:20:07;99501.88;;;24.60
54306;BMP280;50434;45.188;5.712;2022-08-01T06:22:32;99500.66;;;24.63
54306;BMP280;50434;45.188;5.712;2022-08-01T06:24:58;99504.50;;;24.70
54306;BMP280;50434;45.188;5.712;2022-08-01T06:27:23;99503.13;;;24.71
54306;BMP280;50434;45.188;5.712;2022-08-01T06:29:51;99499.84;;;24.74
54306;BMP280;50434;45.188;5.712;2022-08-01T06:32:19;99498.59;;;24.77
54306;BMP280;50434;45.188;5.712;2022-08-01T06:34:44;99497.41;;;24.80
54306;BMP280;50434;45.188;5.712;2022-08-01T06:37:10;99496.03;;;24.81
54306;BMP280;50434;45.188;5.712;2022-08-01T06:39:38;99478.75;;;24.71
54306;BMP280;50434;45.188;5.712;2022-08-01T06:42:03;99503.19;;;24.84
54306;BMP280;50434;45.188;5.712;2022-08-01T06:44:28;99496.34;;;24.87
54306;BMP280;50434;45.188;5.712;2022-08-01T06:46:54;99499.25;;;24.89
54306;BMP280;50434;45.188;5.712;2022-08-01T06:49:19;99500.81;;;24.92
54306;BMP280;50434;45.188;5.712;2022-08-01T06:51:45;99501.84;;;24.99
54306;BMP280;50434;45.188;5.712;2022-08-01T06:54:10;99498.47;;;25.01
54306;BMP280;50434;45.188;5.712;2022-08-01T06:56:36;99496.50;;;25.03
54306;BMP280;50434;45.188;5.712;2022-08-01T06:59:01;99495.25;;;25.06
54306;BMP280;50434;45.188;5.712;2022-08-01T07:01:28;99491.84;;;25.08
54306;BMP280;50434;45.188;5.712;2022-08-01T07:03:53;99487.84;;;25.11
54306;BMP280;50434;45.188;5.712;2022-08-01T07:06:19;99489.47;;;25.16
54306;BMP280;50434;45.188;5.712;2022-08-01T07:08:45;99496.63;;;25.19
54306;BMP280;50434;45.188;5.712;2022-08-01T07:11:10;99503.13;;;25.23
54306;BMP280;50434;45.188;5.712;2022-08-01T07:13:36;99497.78;;;25.27
54306;BMP280;50434;45.188;5.712;2022-08-01T07:16:01;99495.78;;;25.30
54306;BMP280;50434;45.188;5.712;2022-08-01T07:18:26;99495.28;;;25.33
54306;BMP280;50434;45.188;5.712;2022-08-01T07:20:52;99500.13;;;25.33
54306;BMP280;50434;45.188;5.712;2022-08-01T07:23:18;99493.94;;;25.34
54306;BMP280;50434;45.188;5.712;2022-08-01T07:25:43;99493.31;;;25.36
54306;BMP280;50434;45.188;5.712;2022-08-01T07:28:09;99497.66;;;25.39
54306;BMP280;50434;45.188;5.712;2022-08-01T07:30:34;99494.44;;;25.44
54306;BMP280;50434;45.188;5.712;2022-08-01T07:33:00;99489.81;;;25.49
54306;BMP280;50434;45.188;5.712;2022-08-01T07:35:26;99495.56;;;25.53
54306;BMP280;50434;45.188;5.712;2022-08-01T07:37:51;99488.75;;;25.56
54306;BMP280;50434;45.188;5.712;2022-08-01T07:40:19;99483.38;;;25.60
54306;BMP280;50434;45.188;5.712;2022-08-01T07:45:13;99486.28;;;25.62
54306;BMP280;50434;45.188;5.712;2022-08-01T07:47:39;99486.66;;;25.70
54306;BMP280;50434;45.188;5.712;2022-08-01T07:50:05;99482.72;;;25.75
54306;BMP280;50434;45.188;5.712;2022-08-01T07:52:31;99476.63;;;25.78
54306;BMP280;50434;45.188;5.712;2022-08-01T07:54:57;99482.41;;;25.82
54306;BMP280;50434;45.188;5.712;2022-08-01T07:57:24;99476.50;;;25.90
54306;BMP280;50434;45.188;5.712;2022-08-01T07:59:50;99478.25;;;25.97
54306;BMP280;50434;45.188;5.712;2022-08-01T08:02:16;99472.72;;;25.99
54306;BMP280;50434;45.188;5.712;2022-08-01T08:04:41;99475.72;;;26.03
54306;BMP280;50434;45.188;5.712;2022-08-01T08:07:07;99471.59;;;26.04
54306;BMP280;50434;45.188;5.712;2022-08-01T08:09:33;99462.66;;;26.07
54306;BMP280;50434;45.188;5.712;2022-08-01T08:11:58;99462.03;;;26.09
54306;BMP280;50434;45.188;5.712;2022-08-01T08:14:24;99470.63;;;26.13
54306;BMP280;50434;45.188;5.712;2022-08-01T08:16:51;99465.22;;;26.17
54306;BMP280;50434;45.188;5.712;2022-08-01T08:19:16;99459.81;;;26.21
54306;BMP280;50434;45.188;5.712;2022-08-01T08:21:41;99462.91;;;26.27
54306;BMP280;50434;45.188;5.712;2022-08-01T08:24:08;99465.31;;;26.35
54306;BMP280;50434;45.188;5.712;2022-08-01T08:26:51;99458.47;;;26.38
54306;BMP280;50434;45.188;5.712;2022-08-01T08:29:17;99465.72;;;26.43
54306;BMP280;50434;45.188;5.712;2022-08-01T08:31:42;99468.72;;;26.47
54306;BMP280;50434;45.188;5.712;2022-08-01T08:34:08;99464.00;;;26.51
54306;BMP280;50434;45.188;5.712;2022-08-01T08:36:34;99467.09;;;26.57
54306;BMP280;50434;45.188;5.712;2022-08-01T08:39:00;99458.88;;;26.61
54306;BMP280;50434;45.188;5.712;2022-08-01T08:41:25;99451.22;;;26.62
54306;BMP280;50434;45.188;5.712;2022-08-01T08:43:51;99450.13;;;26.69
54306;BMP280;50434;45.188;5.712;2022-08-01T08:46:18;99449.75;;;26.76
54306;BMP280;50434;45.188;5.712;2022-08-01T08:48:44;99442.28;;;26.81
54306;BMP280;50434;45.188;5.712;2022-08-01T08:51:10;99450.28;;;26.88
54306;BMP280;50434;45.188;5.712;2022-08-01T08:53:38;99447.06;;;26.94
54306;BMP280;50434;45.188;5.712;2022-08-01T08:56:08;99446.53;;;26.97
54306;BMP280;50434;45.188;5.712;2022-08-01T08:58:34;99437.47;;;26.99
54306;BMP280;50434;45.188;5.712;2022-08-01T09:01:05;99435.47;;;27.01
54306;BMP280;50434;45.188;5.712;2022-08-01T09:03:31;99438.38;;;27.03
54306;BMP280;50434;45.188;5.712;2022-08-01T09:05:57;99429.50;;;27.09
54306;BMP280;50434;45.188;5.712;2022-08-01T09:08:22;99431.81;;;27.14
54306;BMP280;50434;45.188;5.712;2022-08-01T09:10:47;99427.94;;;27.21
54306;BMP280;50434;45.188;5.712;2022-08-01T09:13:14;99426.66;;;27.24
54306;BMP280;50434;45.188;5.712;2022-08-01T09:15:45;99435.34;;;27.30
54306;BMP280;50434;45.188;5.712;2022-08-01T09:21:18;99423.44;;;27.47
54306;BMP280;50434;45.188;5.712;2022-08-01T09:23:50;99423.56;;;27.51
54306;BMP280;50434;45.188;5.712;2022-08-01T09:26:18;99436.56;;;27.60
54306;BMP280;50434;45.188;5.712;2022-08-01T09:28:45;99424.81;;;27.64
54306;BMP280;50434;45.188;5.712;2022-08-01T09:31:14;99425.06;;;27.70
54306;BMP280;50434;45.188;5.712;2022-08-01T09:33:49;99427.34;;;27.76
54306;BMP280;50434;45.188;5.712;2022-08-01T09:36:15;99415.66;;;27.81
54306;BMP280;50434;45.188;5.712;2022-08-01T09:38:40;99414.66;;;27.90
54306;BMP280;50434;45.188;5.712;2022-08-01T09:41:06;99405.75;;;27.96
54306;BMP280;50434;45.188;5.712;2022-08-01T09:43:33;99405.25;;;28.01
54306;BMP280;50434;45.188;5.712;2022-08-01T09:45:59;99402.13;;;28.11
54306;BMP280;50434;45.188;5.712;2022-08-01T09:48:29;99403.88;;;28.20
54306;BMP280;50434;45.188;5.712;2022-08-01T09:50:55;99396.47;;;28.28
54306;BMP280;50434;45.188;5.712;2022-08-01T09:53:21;99396.75;;;28.36
54306;BMP280;50434;45.188;5.712;2022-08-01T09:55:46;99403.31;;;28.43
54306;BMP280;50434;45.188;5.712;2022-08-01T09:58:12;99396.84;;;28.58
54306;BMP280;50434;45.188;5.712;2022-08-01T10:00:39;99388.28;;;28.73
54306;BMP280;50434;45.188;5.712;2022-08-01T10:03:22;99393.81;;;28.91
54306;BMP280;50434;45.188;5.712;2022-08-01T10:05:48;99380.69;;;28.97
54306;BMP280;50434;45.188;5.712;2022-08-01T10:08:14;99383.13;;;29.07
54306;BMP280;50434;45.188;5.712;2022-08-01T10:10:40;99382.19;;;29.22
54306;BMP280;50434;45.188;5.712;2022-08-01T10:13:06;99368.31;;;29.26
54306;BMP280;50434;45.188;5.712;2022-08-01T10:15:32;99362.94;;;29.34
54306;BMP280;50434;45.188;5.712;2022-08-01T10:18:00;99369.38;;;29.39
54306;BMP280;50434;45.188;5.712;2022-08-01T10:20:29;99368.22;;;29.46
54306;BMP280;50434;45.188;5.712;2022-08-01T10:22:56;99369.81;;;29.53
54306;BMP280;50434;45.188;5.712;2022-08-01T10:25:23;99360.25;;;29.62
54306;BMP280;50434;45.188;5.712;2022-08-01T10:27:53;99358.50;;;29.72
54306;BMP280;50434;45.188;5.712;2022-08-01T10:30:22;99348.69;;;29.73
54306;BMP280;50434;45.188;5.712;2022-08-01T10:32:48;99353.00;;;29.76
54306;BMP280;50434;45.188;5.712;2022-08-01T10:35:14;99342.50;;;29.79
54306;BMP280;50434;45.188;5.712;2022-08-01T10:37:46;99344.13;;;29.86
54306;BMP280;50434;45.188;5.712;2022-08-01T10:40:13;99337.31;;;29.93
54306;BMP280;50434;45.188;5.712;2022-08-01T10:42:43;99331.22;;;30.00
54306;BMP280;50434;45.188;5.712;2022-08-01T10:45:10;99327.34;;;30.13
54306;BMP280;50434;45.188;5.712;2022-08-01T10:53:11;99323.94;;;30.42
54306;BMP280;50434;45.188;5.712;2022-08-01T10:58:26;99308.75;;;30.53
54306;BMP280;50434;45.188;5.712;2022-08-01T11:12:12;99297.59;;;30.87
54306;BMP280;50434;45.188;5.712;2022-08-01T11:20:17;99298.81;;;31.08
54306;BMP280;50434;45.188;5.712;2022-08-01T11:25:24;99286.47;;;31.23
54306;BMP280;50434;45.188;5.712;2022-08-01T11:30:53;99288.25;;;31.40
54306;BMP280;50434;45.188;5.712;2022-08-01T11:38:35;99266.16;;;31.62
54306;BMP280;50434;45.188;5.712;2022-08-01T11:44:02;99254.47;;;31.75
54306;BMP280;50434;45.188;5.712;2022-08-01T11:46:50;99242.63;;;31.83
54306;BMP280;50434;45.188;5.712;2022-08-01T11:52:30;99246.28;;;31.89
54306;BMP280;50434;45.188;5.712;2022-08-01T11:55:07;99234.31;;;31.91
54306;BMP280;50434;45.188;5.712;2022-08-01T11:57:37;99227.34;;;31.96
54306;BMP280;50434;45.188;5.712;2022-08-01T12:02:32;99227.56;;;32.08
54306;BMP280;50434;45.188;5.712;2022-08-01T12:07:30;99219.28;;;32.18
54306;BMP280;50434;45.188;5.712;2022-08-01T12:10:06;99210.22;;;32.23
54306;BMP280;50434;45.188;5.712;2022-08-01T12:12:34;99218.06;;;32.29
54306;BMP280;50434;45.188;5.712;2022-08-01T12:15:03;99227.31;;;32.33
54306;BMP280;50434;45.188;5.712;2022-08-01T12:19:55;99228.78;;;32.36
54306;BMP280;50434;45.188;5.712;2022-08-01T12:22:24;99218.22;;;32.39
54306;BMP280;50434;45.188;5.712;2022-08-01T12:24:51;99205.53;;;32.40
54306;BMP280;50434;45.188;5.712;2022-08-01T12:27:25;99210.53;;;32.43
54306;BMP280;50434;45.188;5.712;2022-08-01T12:29:51;99212.66;;;32.45
54306;BMP280;50434;45.188;5.712;2022-08-01T12:32:28;99211.28;;;32.48
54306;BMP280;50434;45.188;5.712;2022-08-01T12:34:56;99208.50;;;32.50
54306;BMP280;50434;45.188;5.712;2022-08-01T12:37:23;99212.78;;;32.51
54306;BMP280;50434;45.188;5.712;2022-08-01T12:39:49;99205.75;;;32.54
54306;BMP280;50434;45.188;5.712;2022-08-01T12:42:15;99207.94;;;32.57
54306;BMP280;50434;45.188;5.712;2022-08-01T12:44:42;99206.59;;;32.62
54306;BMP280;50434;45.188;5.712;2022-08-01T12:47:08;99211.56;;;32.64
54306;BMP280;50434;45.188;5.712;2022-08-01T12:49:37;99209.44;;;32.64
54306;BMP280;50434;45.188;5.712;2022-08-01T12:52:04;99203.03;;;32.62
54306;BMP280;50434;45.188;5.712;2022-08-01T12:54:29;99204.50;;;32.65
54306;BMP280;50434;45.188;5.712;2022-08-01T12:56:55;99201.00;;;32.66
54306;BMP280;50434;45.188;5.712;2022-08-01T12:59:25;99194.00;;;32.71
54306;BMP280;50434;45.188;5.712;2022-08-01T13:01:52;99197.63;;;32.78
54306;BMP280;50434;45.188;5.712;2022-08-01T13:04:18;99192.03;;;32.80
54306;BMP280;50434;45.188;5.712;2022-08-01T13:06:44;99192.03;;;32.82
54306;BMP280;50434;45.188;5.712;2022-08-01T13:09:10;99189.19;;;32.80
54306;BMP280;50434;45.188;5.712;2022-08-01T13:11:37;99190.66;;;32.83
54306;BMP280;50434;45.188;5.712;2022-08-01T13:14:03;99189.97;;;32.86
54306;BMP280;50434;45.188;5.712;2022-08-01T13:16:29;99180.84;;;32.90
54306;BMP280;50434;45.188;5.712;2022-08-01T13:18:56;99186.50;;;32.92
54306;BMP280;50434;45.188;5.712;2022-08-01T13:21:22;99186.59;;;32.98
54306;BMP280;50434;45.188;5.712;2022-08-01T13:24:04;99189.47;;;33.02
54306;BMP280;50434;45.188;5.712;2022-08-01T13:26:42;99193.03;;;33.04
54306;BMP280;50434;45.188;5.712;2022-08-01T13:29:09;99190.91;;;33.05
54306;BMP280;50434;45.188;5.712;2022-08-01T13:31:36;99178.25;;;33.08
54306;BMP280;50434;45.188;5.712;2022-08-01T13:34:02;99188.19;;;33.11
54306;BMP280;50434;45.188;5.712;2022-08-01T13:36:27;99192.41;;;33.12
54306;BMP280;50434;45.188;5.712;2022-08-01T13:38:54;99177.59;;;33.11
54306;BMP280;50434;45.188;5.712;2022-08-01T13:41:38;99185.38;;;33.13
54306;BMP280;50434;45.188;5.712;2022-08-01T13:44:03;99175.47;;;33.12
54306;BMP280;50434;45.188;5.712;2022-08-01T13:46:29;99184.75;;;33.16
54306;BMP280;50434;45.188;5.712;2022-08-01T13:48:55;99178.41;;;33.20
54306;BMP280;50434;45.188;5.712;2022-08-01T13:51:20;99189.72;;;33.22
54306;BMP280;50434;45.188;5.712;2022-08-01T13:53:46;99186.97;;;33.28
54306;BMP280;50434;45.188;5.712;2022-08-01T13:56:12;99185.59;;;33.29
54306;BMP280;50434;45.188;5.712;2022-08-01T13:58:37;99176.41;;;33.31
54306;BMP280;50434;45.188;5.712;2022-08-01T14:01:02;99184.97;;;33.37
54306;BMP280;50434;45.188;5.712;2022-08-01T14:03:29;99175.06;;;33.38
54306;BMP280;50434;45.188;5.712;2022-08-01T14:05:56;99169.47;;;33.42
54306;BMP280;50434;45.188;5.712;2022-08-01T14:08:21;99172.31;;;33.46
54306;BMP280;50434;45.188;5.712;2022-08-01T14:10:47;99170.22;;;33.46
54306;BMP280;50434;45.188;5.712;2022-08-01T14:13:12;99169.53;;;33.48
54306;BMP280;50434;45.188;5.712;2022-08-01T14:15:37;99166.75;;;33.52
54306;BMP280;50434;45.188;5.712;2022-08-01T14:18:03;99164.63;;;33.52
54306;BMP280;50434;45.188;5.712;2022-08-01T14:20:29;99170.31;;;33.54
54306;BMP280;50434;45.188;5.712;2022-08-01T14:22:54;99163.22;;;33.55
54306;BMP280;50434;45.188;5.712;2022-08-01T14:25:20;99157.56;;;33.55
54306;BMP280;50434;45.188;5.712;2022-08-01T14:27:45;99156.19;;;33.58
54306;BMP280;50434;45.188;5.712;2022-08-01T14:30:11;99151.97;;;33.57
54306;BMP280;50434;45.188;5.712;2022-08-01T14:32:37;99160.47;;;33.61
54306;BMP280;50434;45.188;5.712;2022-08-01T14:35:04;99147.75;;;33.62
54306;BMP280;50434;45.188;5.712;2022-08-01T14:37:31;99154.84;;;33.63
54306;BMP280;50434;45.188;5.712;2022-08-01T14:39:57;99161.94;;;33.68
54306;BMP280;50434;45.188;5.712;2022-08-01T14:42:23;99150.63;;;33.68
54306;BMP280;50434;45.188;5.712;2022-08-01T14:44:48;99142.88;;;33.67
54306;BMP280;50434;45.188;5.712;2022-08-01T14:47:14;99142.88;;;33.67
54306;BMP280;50434;45.188;5.712;2022-08-01T14:49:39;99152.00;;;33.65
54306;BMP280;50434;45.188;5.712;2022-08-01T14:52:05;99152.72;;;33.66
54306;BMP280;50434;45.188;5.712;2022-08-01T14:54:30;99144.25;;;33.68
54306;BMP280;50434;45.188;5.712;2022-08-01T14:56:55;99150.63;;;33.68
54306;BMP280;50434;45.188;5.712;2022-08-01T14:59:21;99136.47;;;33.68
54306;BMP280;50434;45.188;5.712;2022-08-01T15:01:46;99137.22;;;33.69
54306;BMP280;50434;45.188;5.712;2022-08-01T15:04:12;99135.81;;;33.72
54306;BMP280;50434;45.188;5.712;2022-08-01T15:06:38;99140.75;;;33.67
54306;BMP280;50434;45.188;5.712;2022-08-01T15:09:03;99141.41;;;33.68
54306;BMP280;50434;45.188;5.712;2022-08-01T15:11:29;99133.66;;;33.66
54306;BMP280;50434;45.188;5.712;2022-08-01T15:13:54;99139.31;;;33.64
54306;BMP280;50434;45.188;5.712;2022-08-01T15:16:38;99139.31;;;33.64